Alviso, CA (95002)

8:17 AM PST on December 07, 2016 (GMT -0800)
Alviso | | Change Station

Elev 9 ft 37.42 °N, 121.97 °W | Updated 6 minutes ago

Partly Cloudy
Partly Cloudy
41.7 °F
Feels Like 42 °F
N
0.0
Wind Variable Wind from North
Gusts 0.6 mph

Today
High -- | Low -- °F
--% Chance of Precip.
Yesterday
High -- | Low -- °F
Precip. -- in
Pressure 30.20 in
Visibility 10.0 miles
Clouds Few 12000 ft
Windchill 42 °F
Dew Point 38 °F
Humidity 87%
Rainfall 0.00 in
Snow Depth Not available.
7:09 AM 4:49 PM
First Quarter, 53% visible
METAR KNUQ 071556Z 00000KT 10SM FEW120 06/03 A3019 RMK AO2 SLP226 T00560028
Pressure 30.20 in
Visibility 10.0 miles
Clouds Few 12000 ft
Windchill 42 °F
Dew Point 38 °F
Humidity 87%
Rainfall 0.00 in
Snow Depth Not available.
7:09 AM 4:49 PM
First Quarter, 53% visible
METAR KNUQ 071556Z 00000KT 10SM FEW120 06/03 A3019 RMK AO2 SLP226 T00560028

10-Day Weather Forecast

Almanac

Astronomy

Dec. 07, 2016 Rise Set
Actual Time
Civil Twilight
Nautical Twilight
Astronomical Twilight
Moon
Length of Visible Light
Length of Day
Tomorrow will be .
, % of the Moon is Illuminated

Today's Extremes

State Highs State Lows

Community

WunderPhotos

Upload Photos

1,956,132 photos uploaded!

WunderBlog® & News

Nearby

Air Quality

  Air Quality AQ Index Pollutant
Not available.

Snow Depth

Station Depth Elevation

Earthquake Activity

City Distance Mag. Time & Date
Minimum magnitude displayed is 2.5.

Coastal Water Temperatures

Place Temperature

Stations

Nearby Weather Stations

Station Location Temp. Windchill Dew Point Humidity Wind Precip. Elev Updated Type
                   

Watches & Warnings

There are currently no watches in effect.